createdAt,value
2022-09-10T00:01:03.473Z,17.20
2022-09-10T00:03:31.420Z,17.10
2022-09-10T00:05:59.233Z,17.20
2022-09-10T00:08:27.084Z,17.10
2022-09-10T00:10:54.953Z,17.10
2022-09-10T00:13:23.554Z,17.10
2022-09-10T00:15:54.695Z,17.10
2022-09-10T00:18:24.001Z,17.10
2022-09-10T00:20:53.906Z,17.10
2022-09-10T00:23:25.857Z,17.10
2022-09-10T00:25:54.881Z,17.10
2022-09-10T00:28:23.993Z,17.10
2022-09-10T00:30:55.340Z,17.10
2022-09-10T00:33:24.699Z,17.10
2022-09-10T00:35:52.655Z,17.10
2022-09-10T00:38:21.054Z,17.10
2022-09-10T00:40:48.944Z,17.10
2022-09-10T00:43:20.339Z,17.00
2022-09-10T00:45:51.897Z,17.00
2022-09-10T00:48:28.446Z,17.10
2022-09-10T00:50:57.097Z,17.00
2022-09-10T00:53:29.157Z,17.00
2022-09-10T00:56:00.916Z,17.00
2022-09-10T00:58:29.723Z,17.00
2022-09-10T01:01:02.449Z,17.00
2022-09-10T01:03:32.663Z,17.00
2022-09-10T01:06:00.738Z,17.00
2022-09-10T01:08:28.631Z,17.00
2022-09-10T01:11:11.267Z,17.00
2022-09-10T01:13:47.947Z,17.00
2022-09-10T01:16:25.144Z,17.00
2022-09-10T01:19:03.759Z,17.00
2022-09-10T01:21:35.838Z,17.00
2022-09-10T01:24:35.948Z,17.00
2022-09-10T01:27:43.149Z,16.90
2022-09-10T01:30:18.059Z,17.00
2022-09-10T01:32:57.573Z,16.90
2022-09-10T01:35:32.285Z,16.90
2022-09-10T01:38:04.632Z,16.90
2022-09-10T01:40:34.210Z,16.90
2022-09-10T01:43:05.550Z,16.90
2022-09-10T01:45:43.017Z,16.90
2022-09-10T01:48:34.735Z,16.90
2022-09-10T01:51:11.574Z,16.80
2022-09-10T01:54:00.123Z,16.80
2022-09-10T01:56:36.654Z,16.80
2022-09-10T01:59:14.374Z,16.80
2022-09-10T02:01:45.968Z,16.80
2022-09-10T02:04:16.039Z,16.90
2022-09-10T02:06:47.611Z,16.80
2022-09-10T02:09:17.430Z,16.80
2022-09-10T02:11:47.301Z,16.80
2022-09-10T02:14:16.897Z,16.80
2022-09-10T02:16:48.538Z,16.80
2022-09-10T02:19:17.720Z,16.80
2022-09-10T02:21:45.770Z,16.80
2022-09-10T02:24:14.483Z,16.80
2022-09-10T02:26:44.348Z,16.80
2022-09-10T02:29:15.332Z,16.80
2022-09-10T02:31:44.920Z,16.80
2022-09-10T02:34:13.068Z,16.80
2022-09-10T02:36:40.950Z,16.80
2022-09-10T02:39:08.941Z,16.80
2022-09-10T02:41:38.044Z,16.80
2022-09-10T02:44:05.937Z,16.80
2022-09-10T02:46:33.800Z,16.80
2022-09-10T02:49:03.402Z,16.80
2022-09-10T02:51:31.371Z,16.80
2022-09-10T02:53:59.387Z,16.80
2022-09-10T02:56:27.467Z,16.80
2022-09-10T02:58:55.326Z,16.80
2022-09-10T03:01:23.996Z,16.80
2022-09-10T03:03:52.697Z,16.80
2022-09-10T03:06:22.238Z,16.80
2022-09-10T03:08:51.135Z,16.80
2022-09-10T03:11:22.877Z,16.80
2022-09-10T03:13:52.097Z,16.80
2022-09-10T03:16:20.468Z,16.80
2022-09-10T03:18:48.439Z,16.80
2022-09-10T03:21:18.829Z,16.80
2022-09-10T03:23:49.758Z,16.90
2022-09-10T03:26:19.134Z,16.90
2022-09-10T03:28:47.947Z,16.80
2022-09-10T03:31:16.169Z,16.80
2022-09-10T03:33:44.069Z,16.90
2022-09-10T03:36:13.870Z,16.90
2022-09-10T03:38:42.003Z,16.90
2022-09-10T03:41:11.511Z,16.90
2022-09-10T03:43:39.456Z,16.90
2022-09-10T03:46:07.609Z,16.90
2022-09-10T03:48:35.604Z,16.90
2022-09-10T03:51:03.458Z,16.90
2022-09-10T03:53:31.261Z,16.90
2022-09-10T03:55:59.160Z,16.90
2022-09-10T03:58:28.622Z,16.90
2022-09-10T04:00:56.486Z,16.90
2022-09-10T04:03:24.416Z,16.90
2022-09-10T04:05:52.241Z,16.90
2022-09-10T04:08:20.554Z,16.90
2022-09-10T04:10:48.431Z,16.90
2022-09-10T04:13:16.430Z,16.90
2022-09-10T04:15:46.997Z,16.90
2022-09-10T04:18:15.428Z,16.90
2022-09-10T04:20:46.546Z,16.90
2022-09-10T04:23:14.546Z,16.90
2022-09-10T04:25:42.409Z,16.90
2022-09-10T04:28:11.431Z,16.90
2022-09-10T04:30:40.244Z,16.90
2022-09-10T04:33:09.621Z,16.90
2022-09-10T04:35:37.492Z,16.90
2022-09-10T04:38:05.332Z,16.90
2022-09-10T04:40:34.081Z,16.80
2022-09-10T04:43:01.930Z,16.80
2022-09-10T04:45:30.842Z,16.80
2022-09-10T04:48:01.637Z,16.80
2022-09-10T04:50:32.909Z,16.80
2022-09-10T04:53:01.148Z,16.80
2022-09-10T04:55:31.102Z,16.80
2022-09-10T04:57:58.947Z,16.80
2022-09-10T05:00:27.100Z,16.80
2022-09-10T05:02:54.935Z,16.80
2022-09-10T05:05:22.779Z,16.80
2022-09-10T05:07:53.070Z,16.80
2022-09-10T05:10:21.318Z,16.90
2022-09-10T05:12:49.308Z,16.90
2022-09-10T05:15:17.222Z,16.90
2022-09-10T05:17:45.366Z,16.90
2022-09-10T05:20:13.301Z,16.90
2022-09-10T05:22:42.242Z,16.90
2022-09-10T05:25:11.570Z,16.90
2022-09-10T05:27:39.457Z,16.90
2022-09-10T05:30:08.853Z,16.90
2022-09-10T05:32:36.966Z,16.90
2022-09-10T05:35:05.329Z,16.90
2022-09-10T05:37:33.180Z,16.90
2022-09-10T05:40:01.066Z,16.90
2022-09-10T05:42:31.009Z,16.90
2022-09-10T05:44:58.893Z,16.90
2022-09-10T05:47:26.953Z,17.00
2022-09-10T05:49:55.174Z,16.90
2022-09-10T05:52:24.354Z,17.00
2022-09-10T05:54:52.257Z,17.00
2022-09-10T05:57:20.149Z,17.00
2022-09-10T05:59:49.381Z,17.00
2022-09-10T06:02:23.268Z,17.00
2022-09-10T06:04:51.922Z,17.00
2022-09-10T06:07:19.828Z,17.00
2022-09-10T06:09:47.641Z,17.00
2022-09-10T06:12:17.117Z,17.00
2022-09-10T06:14:45.049Z,17.00
2022-09-10T06:17:14.391Z,17.00
2022-09-10T06:19:44.553Z,17.00
2022-09-10T06:22:12.731Z,17.00
2022-09-10T06:24:40.683Z,17.00
2022-09-10T06:27:08.547Z,17.00
2022-09-10T06:29:37.442Z,17.10
2022-09-10T06:32:06.129Z,17.10
2022-09-10T06:34:35.785Z,17.10
2022-09-10T06:37:06.034Z,17.10
2022-09-10T06:39:34.092Z,17.10
2022-09-10T06:42:02.045Z,17.10
2022-09-10T06:44:30.494Z,17.10
2022-09-10T06:49:48.784Z,17.20
2022-09-10T06:52:16.888Z,17.20
2022-09-10T06:54:45.081Z,17.20
2022-09-10T06:57:14.261Z,17.20
2022-09-10T06:59:43.686Z,17.30
2022-09-10T07:02:12.756Z,17.30
2022-09-10T07:04:40.718Z,17.30
2022-09-10T07:07:10.077Z,17.30
2022-09-10T07:09:37.949Z,17.40
2022-09-10T07:12:06.226Z,17.40
2022-09-10T07:14:34.176Z,17.40
2022-09-10T07:17:02.462Z,17.50
2022-09-10T07:19:31.987Z,17.50
2022-09-10T07:21:59.905Z,17.60
2022-09-10T07:24:29.206Z,17.60
2022-09-10T07:26:57.671Z,17.60
2022-09-10T07:29:25.549Z,17.70
2022-09-10T07:31:53.536Z,17.70
2022-09-10T07:34:21.374Z,17.70
2022-09-10T07:36:49.262Z,17.80
2022-09-10T07:39:17.104Z,17.80
2022-09-10T07:41:46.542Z,17.80
2022-09-10T07:44:14.378Z,17.80
2022-09-10T07:46:42.345Z,17.90
2022-09-10T07:49:10.843Z,17.90
2022-09-10T07:51:39.320Z,17.90
2022-09-10T07:54:07.298Z,18.00
2022-09-10T07:56:36.353Z,18.00
2022-09-10T07:59:05.582Z,18.10
2022-09-10T08:01:34.222Z,18.10
2022-09-10T08:04:04.265Z,18.10
2022-09-10T08:06:33.974Z,18.20
2022-09-10T08:09:01.877Z,18.20
2022-09-10T08:11:29.774Z,18.20
2022-09-10T08:13:57.636Z,18.30
2022-09-10T08:16:27.548Z,18.30
2022-09-10T08:18:57.144Z,18.30
2022-09-10T08:21:25.851Z,18.40
2022-09-10T08:23:55.325Z,18.40
2022-09-10T08:26:24.620Z,18.40
2022-09-10T08:28:52.788Z,18.50
2022-09-10T08:31:22.072Z,18.50
2022-09-10T08:33:53.105Z,18.50
2022-09-10T08:36:24.080Z,18.60
2022-09-10T08:38:55.154Z,18.60
2022-09-10T08:41:32.364Z,18.60
2022-09-10T08:44:05.344Z,18.70
2022-09-10T08:46:38.382Z,18.70
2022-09-10T08:49:12.695Z,18.70
2022-09-10T08:51:46.760Z,18.70
2022-09-10T08:54:17.845Z,18.80
2022-09-10T08:56:48.284Z,18.80
2022-09-10T08:59:22.385Z,18.90
2022-09-10T09:01:55.451Z,18.90
2022-09-10T09:04:38.639Z,18.90
2022-09-10T09:07:14.109Z,19.00
2022-09-10T09:09:42.822Z,19.00
2022-09-10T09:12:20.962Z,19.00
2022-09-10T09:14:59.605Z,19.10
2022-09-10T09:17:44.723Z,19.10
2022-09-10T09:20:19.048Z,19.10
2022-09-10T09:22:53.274Z,19.20
2022-09-10T09:25:28.316Z,19.20
2022-09-10T09:27:58.422Z,19.30
2022-09-10T09:30:32.965Z,19.30
2022-09-10T09:33:05.536Z,19.40
2022-09-10T09:35:41.928Z,19.40
2022-09-10T09:38:19.406Z,19.50
2022-09-10T09:40:50.611Z,19.50
2022-09-10T09:43:28.615Z,19.50
2022-09-10T09:45:56.775Z,19.60
2022-09-10T09:48:25.461Z,19.60
2022-09-10T09:51:00.261Z,19.70
2022-09-10T09:53:30.929Z,19.70
2022-09-10T09:56:00.850Z,19.70
2022-09-10T09:58:34.856Z,19.80
2022-09-10T10:01:22.271Z,19.80
2022-09-10T10:03:58.538Z,19.90
2022-09-10T10:06:31.205Z,19.90
2022-09-10T10:09:04.999Z,20.00
2022-09-10T10:11:45.436Z,20.00
2022-09-10T10:14:22.776Z,20.00
2022-09-10T10:16:52.250Z,20.10
2022-09-10T10:19:32.713Z,20.10
2022-09-10T10:22:21.394Z,20.20
2022-09-10T10:24:51.447Z,20.20
2022-09-10T10:27:26.540Z,20.30
2022-09-10T10:29:56.442Z,20.30
2022-09-10T10:32:34.609Z,20.30
2022-09-10T10:35:29.333Z,20.30
2022-09-10T10:38:20.025Z,20.30
2022-09-10T10:40:56.688Z,20.30
2022-09-10T10:43:37.545Z,20.40
2022-09-10T10:46:11.299Z,20.40
2022-09-10T10:48:57.907Z,20.50
2022-09-10T10:51:34.944Z,20.50
2022-09-10T10:54:19.913Z,20.50
2022-09-10T10:56:59.864Z,20.50
2022-09-10T10:59:42.572Z,20.60
2022-09-10T11:02:16.886Z,20.60
2022-09-10T11:04:50.266Z,20.70
2022-09-10T11:07:23.090Z,20.70
2022-09-10T11:09:58.922Z,20.80
2022-09-10T11:12:32.523Z,20.80
2022-09-10T11:15:04.125Z,20.90
2022-09-10T11:17:39.566Z,20.90
2022-09-10T11:20:28.641Z,21.00
2022-09-10T11:23:04.310Z,21.00
2022-09-10T11:25:38.363Z,21.00
2022-09-10T11:28:12.769Z,21.10
2022-09-10T11:30:46.121Z,21.20
2022-09-10T11:33:23.279Z,21.20
2022-09-10T11:35:59.757Z,21.30
2022-09-10T11:38:33.280Z,21.40
2022-09-10T11:41:10.109Z,21.40
2022-09-10T11:43:43.097Z,21.50
2022-09-10T11:46:15.703Z,21.50
2022-09-10T11:48:48.073Z,21.50
2022-09-10T11:51:20.238Z,21.60
2022-09-10T11:53:48.422Z,21.60
2022-09-10T11:56:29.422Z,21.60
2022-09-10T11:59:10.570Z,21.70
2022-09-10T12:01:56.910Z,21.70
2022-09-10T12:04:47.574Z,21.70
2022-09-10T12:07:26.778Z,21.80
2022-09-10T12:10:12.177Z,21.80
2022-09-10T12:12:44.962Z,21.90
2022-09-10T12:15:20.383Z,21.90
2022-09-10T12:17:53.824Z,22.00
2022-09-10T12:20:27.920Z,22.00
2022-09-10T12:22:57.072Z,22.10
2022-09-10T12:25:34.196Z,22.10
2022-09-10T12:28:07.961Z,22.20
2022-09-10T12:31:03.758Z,22.20
2022-09-10T12:34:07.437Z,22.30
2022-09-10T12:37:15.775Z,22.30
2022-09-10T12:39:43.723Z,22.30
2022-09-10T12:42:29.921Z,22.40
2022-09-10T12:44:59.583Z,22.40
2022-09-10T12:47:43.514Z,22.50
2022-09-10T12:50:27.706Z,22.50
2022-09-10T12:53:32.276Z,22.60
2022-09-10T12:56:02.965Z,22.60
2022-09-10T12:58:43.272Z,22.70
2022-09-10T13:01:24.745Z,22.70
2022-09-10T13:03:57.150Z,22.70
2022-09-10T13:06:38.207Z,22.80
2022-09-10T13:09:18.403Z,22.80
2022-09-10T13:11:49.554Z,22.80
2022-09-10T13:14:22.223Z,22.80
2022-09-10T13:16:51.539Z,22.80
2022-09-10T13:19:52.554Z,22.90
2022-09-10T13:22:55.046Z,22.90
2022-09-10T13:25:35.103Z,22.90
2022-09-10T13:28:03.163Z,22.90
2022-09-10T13:30:31.493Z,22.90
2022-09-10T13:33:05.446Z,23.00
2022-09-10T13:36:10.533Z,23.00
2022-09-10T13:39:15.938Z,23.10
2022-09-10T13:42:08.771Z,23.20
2022-09-10T13:45:08.802Z,23.20
2022-09-10T13:47:46.184Z,23.30
2022-09-10T13:50:18.825Z,23.30
2022-09-10T13:52:50.148Z,23.30
2022-09-10T13:55:21.689Z,23.30
2022-09-10T13:57:52.794Z,23.40
2022-09-10T14:00:24.217Z,23.50
2022-09-10T14:02:54.327Z,23.50
2022-09-10T14:05:44.346Z,23.50
2022-09-10T14:08:17.664Z,23.70
2022-09-10T14:10:59.870Z,23.80
2022-09-10T14:13:31.759Z,23.90
2022-09-10T14:16:01.747Z,24.00
2022-09-10T14:18:38.051Z,24.10
2022-09-10T14:21:07.681Z,24.20
2022-09-10T14:23:36.134Z,24.30
2022-09-10T14:26:12.689Z,24.40
2022-09-10T14:28:50.803Z,24.40
2022-09-10T14:31:28.179Z,24.50
2022-09-10T14:33:58.031Z,24.60
2022-09-10T14:36:34.766Z,24.60
2022-09-10T14:39:07.945Z,24.70
2022-09-10T14:41:37.567Z,24.70
2022-09-10T14:44:27.518Z,24.70
2022-09-10T14:46:57.482Z,24.80
2022-09-10T14:49:28.309Z,24.80
2022-09-10T14:51:58.958Z,24.90
2022-09-10T14:54:26.990Z,25.00
2022-09-10T14:56:58.078Z,25.00
2022-09-10T14:59:31.144Z,25.00
2022-09-10T15:02:00.857Z,25.10
2022-09-10T15:04:30.313Z,25.10
2022-09-10T15:07:02.607Z,25.20
2022-09-10T15:09:31.218Z,25.30
2022-09-10T15:12:04.690Z,25.30
2022-09-10T15:14:33.404Z,25.40
2022-09-10T15:17:01.636Z,25.40
2022-09-10T15:19:29.845Z,25.50
2022-09-10T15:21:59.665Z,25.50
2022-09-10T15:24:28.540Z,25.50
2022-09-10T15:26:57.421Z,25.50
2022-09-10T15:29:26.067Z,25.60
2022-09-10T15:31:54.510Z,25.60
2022-09-10T15:34:22.484Z,25.60
2022-09-10T15:36:50.324Z,25.60
2022-09-10T15:39:19.562Z,25.70
2022-09-10T15:41:47.654Z,25.70
2022-09-10T15:44:15.678Z,25.70
2022-09-10T15:46:45.101Z,25.80
2022-09-10T15:49:13.243Z,25.80
2022-09-10T15:51:42.164Z,25.80
2022-09-10T15:54:11.044Z,25.80
2022-09-10T15:56:40.974Z,25.90
2022-09-10T15:59:10.258Z,25.90
2022-09-10T16:01:39.382Z,25.80
2022-09-10T16:04:08.121Z,25.80
2022-09-10T16:06:37.835Z,25.80
2022-09-10T16:09:09.610Z,25.70
2022-09-10T16:11:38.854Z,25.60
2022-09-10T16:14:09.826Z,25.60
2022-09-10T16:16:37.866Z,25.50
2022-09-10T16:19:06.799Z,25.50
2022-09-10T16:21:36.227Z,25.40
2022-09-10T16:24:05.721Z,25.30
2022-09-10T16:26:35.660Z,25.30
2022-09-10T16:29:07.895Z,25.20
2022-09-10T16:31:39.070Z,25.10
2022-09-10T16:34:08.791Z,25.10
2022-09-10T16:36:38.002Z,25.00
2022-09-10T16:39:12.300Z,25.00
2022-09-10T16:41:41.340Z,24.90
2022-09-10T16:44:09.473Z,24.90
2022-09-10T16:46:39.458Z,24.80
2022-09-10T16:49:08.968Z,24.70
2022-09-10T16:51:37.162Z,24.70
2022-09-10T16:54:07.138Z,24.60
2022-09-10T16:56:37.821Z,24.50
2022-09-10T16:59:07.451Z,24.50
2022-09-10T17:01:35.839Z,24.40
2022-09-10T17:04:08.139Z,24.30
2022-09-10T17:06:36.809Z,24.30
2022-09-10T17:09:04.860Z,24.20
2022-09-10T17:11:33.950Z,24.10
2022-09-10T17:14:02.575Z,24.00
2022-09-10T17:16:32.694Z,23.90
2022-09-10T17:19:02.917Z,23.80
2022-09-10T17:21:34.356Z,23.80
2022-09-10T17:24:05.297Z,23.70
2022-09-10T17:26:34.289Z,23.60
2022-09-10T17:29:04.054Z,23.60
2022-09-10T17:31:32.508Z,23.50
2022-09-10T17:34:00.913Z,23.40
2022-09-10T17:36:30.521Z,23.30
2022-09-10T17:39:00.261Z,23.20
2022-09-10T17:41:29.491Z,23.20
2022-09-10T17:43:59.753Z,23.10
2022-09-10T17:46:28.128Z,23.00
2022-09-10T17:48:56.051Z,23.00
2022-09-10T17:51:25.963Z,22.90
2022-09-10T17:53:55.849Z,22.80
2022-09-10T17:56:26.933Z,22.80
2022-09-10T17:58:59.229Z,22.70
2022-09-10T18:01:29.285Z,22.60
2022-09-10T18:03:57.252Z,22.60
2022-09-10T18:06:25.574Z,22.50
2022-09-10T18:08:53.868Z,22.40
2022-09-10T18:11:25.728Z,22.30
2022-09-10T18:13:55.110Z,22.30
2022-09-10T18:16:24.737Z,22.20
2022-09-10T18:18:55.438Z,22.20
2022-09-10T18:21:27.805Z,22.10
2022-09-10T18:23:57.383Z,22.00
2022-09-10T18:26:28.600Z,22.00
2022-09-10T18:28:59.476Z,21.90
2022-09-10T18:31:29.287Z,21.90
2022-09-10T18:33:58.037Z,21.80
2022-09-10T18:36:27.057Z,21.80
2022-09-10T18:38:55.075Z,21.70
2022-09-10T18:41:25.747Z,21.70
2022-09-10T18:43:57.645Z,21.60
2022-09-10T18:46:26.528Z,21.50
2022-09-10T18:48:54.524Z,21.50
2022-09-10T18:51:24.705Z,21.40
2022-09-10T18:53:54.158Z,21.40
2022-09-10T18:56:25.326Z,21.30
2022-09-10T18:58:56.738Z,21.30
2022-09-10T19:01:26.357Z,21.20
2022-09-10T19:03:54.352Z,21.20
2022-09-10T19:06:24.177Z,21.10
2022-09-10T19:08:54.142Z,21.00
2022-09-10T19:11:24.393Z,21.00
2022-09-10T19:13:55.714Z,20.90
2022-09-10T19:16:26.727Z,20.90
2022-09-10T19:18:56.163Z,20.80
2022-09-10T19:21:26.320Z,20.80
2022-09-10T19:23:59.355Z,20.70
2022-09-10T19:26:29.904Z,20.70
2022-09-10T19:29:00.871Z,20.60
2022-09-10T19:31:30.783Z,20.60
2022-09-10T19:34:00.971Z,20.50
2022-09-10T19:36:30.792Z,20.50
2022-09-10T19:38:59.497Z,20.40
2022-09-10T19:41:27.750Z,20.40
2022-09-10T19:43:58.551Z,20.40
2022-09-10T19:46:28.294Z,20.30
2022-09-10T19:48:58.305Z,20.30
2022-09-10T19:51:28.260Z,20.20
2022-09-10T19:53:56.670Z,20.20
2022-09-10T19:56:26.361Z,20.10
2022-09-10T19:58:56.324Z,20.10
2022-09-10T20:01:26.881Z,20.10
2022-09-10T20:03:55.877Z,20.00
2022-09-10T20:06:25.454Z,20.00
2022-09-10T20:08:53.935Z,19.90
2022-09-10T20:11:23.805Z,19.90
2022-09-10T20:13:55.734Z,19.80
2022-09-10T20:16:26.214Z,19.80
2022-09-10T20:18:54.669Z,19.80
2022-09-10T20:21:24.300Z,19.70
2022-09-10T20:23:55.590Z,19.70
2022-09-10T20:26:25.310Z,19.70
2022-09-10T20:28:55.675Z,19.60
2022-09-10T20:31:27.164Z,19.60
2022-09-10T20:33:57.190Z,19.50
2022-09-10T20:36:26.419Z,19.50
2022-09-10T20:38:55.294Z,19.40
2022-09-10T20:41:24.079Z,19.40
2022-09-10T20:43:52.857Z,19.40
2022-09-10T20:46:23.095Z,19.30
2022-09-10T20:48:53.450Z,19.30
2022-09-10T20:51:21.453Z,19.30
2022-09-10T20:53:49.741Z,19.20
2022-09-10T20:56:20.099Z,19.20
2022-09-10T20:58:48.767Z,19.10
2022-09-10T21:01:18.967Z,19.10
2022-09-10T21:03:47.684Z,19.10
2022-09-10T21:06:19.572Z,19.00
2022-09-10T21:08:48.733Z,19.00
2022-09-10T21:11:18.157Z,18.90
2022-09-10T21:13:47.999Z,18.90
2022-09-10T21:16:18.219Z,18.80
2022-09-10T21:18:52.217Z,18.80
2022-09-10T21:21:25.813Z,18.80
2022-09-10T21:23:55.418Z,18.70
2022-09-10T21:26:25.122Z,18.70
2022-09-10T21:28:56.952Z,18.60
2022-09-10T21:31:25.159Z,18.60
2022-09-10T21:33:53.065Z,18.60
2022-09-10T21:36:21.761Z,18.50
2022-09-10T21:38:51.965Z,18.50
2022-09-10T21:41:22.728Z,18.50
2022-09-10T21:43:50.561Z,18.40
2022-09-10T21:46:19.447Z,18.40
2022-09-10T21:48:47.348Z,18.30
2022-09-10T21:51:16.594Z,18.30
2022-09-10T21:53:45.292Z,18.30
2022-09-10T21:56:15.777Z,18.20
2022-09-10T21:58:45.465Z,18.20
2022-09-10T22:01:16.313Z,18.20
2022-09-10T22:03:46.551Z,18.10
2022-09-10T22:06:18.453Z,18.10
2022-09-10T22:08:49.109Z,18.10
2022-09-10T22:11:23.700Z,18.00
2022-09-10T22:13:53.417Z,18.00
2022-09-10T22:16:22.695Z,18.00
2022-09-10T22:18:51.518Z,17.90
2022-09-10T22:21:19.360Z,17.90
2022-09-10T22:23:47.390Z,17.90
2022-09-10T22:26:17.224Z,17.90
2022-09-10T22:28:47.168Z,17.80
2022-09-10T22:31:16.770Z,17.80
2022-09-10T22:33:46.098Z,17.80
2022-09-10T22:36:16.689Z,17.80
2022-09-10T22:38:44.617Z,17.70
2022-09-10T22:41:14.367Z,17.70
2022-09-10T22:43:42.758Z,17.70
2022-09-10T22:46:12.368Z,17.60
2022-09-10T22:48:42.410Z,17.60
2022-09-10T22:51:12.553Z,17.60
2022-09-10T22:53:41.813Z,17.60
2022-09-10T22:56:10.347Z,17.50
2022-09-10T22:58:39.215Z,17.50
2022-09-10T23:01:08.702Z,17.50
2022-09-10T23:03:38.421Z,17.40
2022-09-10T23:06:08.375Z,17.40
2022-09-10T23:08:37.245Z,17.40
2022-09-10T23:11:09.834Z,17.30
2022-09-10T23:13:38.069Z,17.30
2022-09-10T23:16:13.822Z,17.30
2022-09-10T23:18:44.246Z,17.30
2022-09-10T23:21:12.138Z,17.20
2022-09-10T23:23:40.014Z,17.20
2022-09-10T23:26:09.841Z,17.20
2022-09-10T23:28:38.255Z,17.20
2022-09-10T23:31:10.795Z,17.20
2022-09-10T23:33:38.747Z,17.20
2022-09-10T23:36:08.446Z,17.10
2022-09-10T23:38:36.789Z,17.10
2022-09-10T23:41:04.908Z,17.10
2022-09-10T23:43:33.749Z,17.10
2022-09-10T23:46:02.083Z,17.10
2022-09-10T23:48:30.696Z,17.00
2022-09-10T23:50:58.852Z,17.00
2022-09-10T23:53:29.074Z,17.00
2022-09-10T23:55:58.129Z,16.90
2022-09-10T23:58:26.416Z,16.90
